Airports Greece Heraklion International Nikos Kazantzakis Airport

Heraklion International Nikos Kazantzakis Airport (LGIR / HER)

Facts about Heraklion International Nikos Kazantzakis Airport

Name Heraklion International Nikos Kazantzakis Airport
City Heraklion
Country Greece
ICAO code LGIR
IATA code HER
Elevation 35.0520 meters (115 feet)

Weather

METAR

Metar data retrieved Saturday, 20 July 2024 at 00:55 UTC (25 minutes ago)

LGIR 200020Z 18003KT CAVOK 25/17 Q1005 NOSIG

Live traffic

Navigraph Charts (account required)